Time;durP1;ratioP1;P1;durP2;ratioP2;P2;SDS_P1;SDS_P2;PMS_P1;PMS_P2;Temp;Humidity;BMP_temperature;BMP_pressure;BME280_temperature;BME280_humidity;BME280_pressure;Samples;Min_cycle;Max_cycle;Signal;HPM_P1;HPM_P2
2022/12/18 00:01:31;;;;;;;44.63;20.60;;;;;;;;;;5047660;28;20060;-72
2022/12/18 00:03:57;;;;;;;44.65;21.15;;;;;;;;;;5050111;28;20061;-72
2022/12/18 00:06:24;;;;;;;51.65;22.85;;;;;;;;;;5054751;28;20207;-72
2022/12/18 00:08:51;;;;;;;51.38;21.90;;;;;;;;;;5049188;28;20433;-73
2022/12/18 00:11:19;;;;;;;51.15;21.83;;;;;;;;;;5055362;28;20059;-72
2022/12/18 00:13:46;;;;;;;49.63;21.38;;;;;;;;;;5050040;28;20516;-72
2022/12/18 00:16:14;;;;;;;49.10;21.27;;;;;;;;;;5051228;28;20056;-73
2022/12/18 00:18:40;;;;;;;45.75;20.38;;;;;;;;;;5054942;28;20541;-72
2022/12/18 00:21:08;;;;;;;48.75;20.88;;;;;;;;;;5049469;28;20131;-72
2022/12/18 00:23:36;;;;;;;45.47;21.90;;;;;;;;;;5056127;28;20531;-72
2022/12/18 00:26:04;;;;;;;50.55;20.63;;;;;;;;;;5046523;28;20568;-72
2022/12/18 00:28:31;;;;;;;45.92;21.58;;;;;;;;;;5054209;28;20049;-72
2022/12/18 00:31:01;;;;;;;42.55;20.20;;;;;;;;;;5049584;28;20089;-72
2022/12/18 00:33:27;;;;;;;52.72;21.15;;;;;;;;;;5051229;28;20060;-73
2022/12/18 00:35:54;;;;;;;44.92;20.70;;;;;;;;;;5051581;28;20113;-73
2022/12/18 00:38:20;;;;;;;39.78;19.45;;;;;;;;;;5054763;28;20053;-73
2022/12/18 00:40:46;;;;;;;46.42;21.45;;;;;;;;;;5051222;28;20107;-72
2022/12/18 00:43:13;;;;;;;48.25;21.63;;;;;;;;;;5050237;28;20516;-73
2022/12/18 00:45:40;;;;;;;42.20;20.25;;;;;;;;;;5053591;28;20049;-72
2022/12/18 00:48:07;;;;;;;50.60;23.02;;;;;;;;;;5053205;28;20061;-72
2022/12/18 00:50:34;;;;;;;49.42;22.75;;;;;;;;;;5052037;28;20064;-72
2022/12/18 00:53:00;;;;;;;54.92;22.88;;;;;;;;;;5052106;28;20052;-72
2022/12/18 00:55:26;;;;;;;55.08;22.73;;;;;;;;;;5051047;28;20092;-72
2022/12/18 00:57:53;;;;;;;47.47;22.05;;;;;;;;;;5055885;28;20836;-72
2022/12/18 01:00:19;;;;;;;51.53;21.30;;;;;;;;;;5048439;28;20058;-72
2022/12/18 01:02:45;;;;;;;52.25;23.40;;;;;;;;;;5052403;28;20060;-72
2022/12/18 01:05:12;;;;;;;57.20;23.35;;;;;;;;;;5051278;28;20054;-74
2022/12/18 01:07:39;;;;;;;53.58;22.15;;;;;;;;;;5052840;28;20064;-74
2022/12/18 01:10:06;;;;;;;47.80;23.02;;;;;;;;;;5052821;28;20061;-74
2022/12/18 01:12:32;;;;;;;51.40;23.88;;;;;;;;;;5052457;28;20095;-73
2022/12/18 01:14:59;;;;;;;49.28;22.67;;;;;;;;;;5052821;28;20136;-73
2022/12/18 01:17:25;;;;;;;48.88;20.88;;;;;;;;;;5049944;28;20069;-73
2022/12/18 01:19:51;;;;;;;44.05;21.40;;;;;;;;;;5050508;28;20483;-74
2022/12/18 01:22:17;;;;;;;47.38;21.95;;;;;;;;;;5051175;28;20052;-74
2022/12/18 01:24:44;;;;;;;45.42;20.52;;;;;;;;;;5055340;28;20044;-73
2022/12/18 01:27:10;;;;;;;46.58;22.52;;;;;;;;;;5048548;28;20044;-73
2022/12/18 01:29:37;;;;;;;42.33;21.33;;;;;;;;;;5052490;28;20132;-73
2022/12/18 01:32:03;;;;;;;50.63;23.30;;;;;;;;;;5050660;28;20060;-73
2022/12/18 01:34:29;;;;;;;43.65;20.63;;;;;;;;;;5055560;28;20099;-73
2022/12/18 01:36:56;;;;;;;46.78;22.50;;;;;;;;;;5049759;28;20083;-73
2022/12/18 01:39:22;;;;;;;54.38;22.70;;;;;;;;;;5047265;28;20046;-74
2022/12/18 01:42:01;;;;;;;52.55;23.77;;;;;;;;;;5052363;28;20053;-73
2022/12/18 01:44:46;;;;;;;49.87;22.37;;;;;;;;;;5051974;28;20080;-73
2022/12/18 01:47:25;;;;;;;47.58;22.38;;;;;;;;;;5048758;28;20475;-73
2022/12/18 01:49:52;;;;;;;45.15;20.15;;;;;;;;;;5053290;28;20053;-73
2022/12/18 01:52:20;;;;;;;56.95;21.48;;;;;;;;;;5052782;28;20417;-73
2022/12/18 01:54:47;;;;;;;50.07;21.80;;;;;;;;;;5056350;28;20517;-72
2022/12/18 01:57:13;;;;;;;46.97;21.57;;;;;;;;;;5053283;28;20065;-73
2022/12/18 01:59:41;;;;;;;46.15;20.20;;;;;;;;;;5054607;28;20806;-73
2022/12/18 02:02:07;;;;;;;50.00;22.65;;;;;;;;;;5052825;28;20053;-73
2022/12/18 02:04:34;;;;;;;52.80;22.27;;;;;;;;;;5053065;28;20527;-73
2022/12/18 02:07:08;;;;;;;47.30;20.00;;;;;;;;;;5049414;28;20053;-72
2022/12/18 02:09:46;;;;;;;46.08;21.83;;;;;;;;;;5054710;28;20053;-74
2022/12/18 02:12:24;;;;;;;47.30;20.20;;;;;;;;;;5067424;28;20108;-73
2022/12/18 02:15:02;;;;;;;47.57;21.33;;;;;;;;;;5054023;28;20056;-73
2022/12/18 02:17:41;;;;;;;44.08;21.85;;;;;;;;;;5049951;28;20483;-73
2022/12/18 02:20:08;;;;;;;51.78;22.40;;;;;;;;;;5061187;28;20531;-73
2022/12/18 02:22:53;;;;;;;46.33;20.87;;;;;;;;;;5053183;28;20049;-73
2022/12/18 02:25:31;;;;;;;52.13;20.77;;;;;;;;;;5057613;28;20085;-74
2022/12/18 02:28:00;;;;;;;48.25;20.77;;;;;;;;;;5062620;28;20049;-73
2022/12/18 02:30:29;;;;;;;49.08;21.23;;;;;;;;;;5050727;28;20495;-73
2022/12/18 02:32:56;;;;;;;51.08;22.58;;;;;;;;;;5055421;28;20050;-73
2022/12/18 02:35:24;;;;;;;43.90;21.95;;;;;;;;;;5054356;28;20053;-74
2022/12/18 02:37:50;;;;;;;55.58;22.83;;;;;;;;;;5051356;28;20080;-73
2022/12/18 02:40:18;;;;;;;44.92;20.73;;;;;;;;;;5056088;28;20049;-74
2022/12/18 02:42:44;;;;;;;47.83;21.58;;;;;;;;;;5052754;28;20530;-73
2022/12/18 02:45:11;;;;;;;48.58;21.00;;;;;;;;;;5050880;28;20059;-73
2022/12/18 02:47:38;;;;;;;49.97;22.33;;;;;;;;;;5048801;28;20541;-73
2022/12/18 02:50:16;;;;;;;47.17;24.35;;;;;;;;;;5051919;28;20083;-74
2022/12/18 02:53:01;;;;;;;54.05;23.25;;;;;;;;;;5049460;28;20083;-71
2022/12/18 02:55:27;;;;;;;51.45;21.20;;;;;;;;;;5048904;28;20049;-71
2022/12/18 02:57:55;;;;;;;44.75;20.30;;;;;;;;;;5048690;28;20053;-72
2022/12/18 03:00:38;;;;;;;52.95;23.33;;;;;;;;;;5050109;28;20136;-71
2022/12/18 03:03:13;;;;;;;43.40;20.10;;;;;;;;;;5049726;28;20064;-72
2022/12/18 03:05:40;;;;;;;;;;;;;;;;;;5054472;28;20049;-72
2022/12/18 03:08:12;;;;;;;42.95;20.50;;;;;;;;;;5046591;28;46101;-72
2022/12/18 03:10:42;;;;;;;38.87;20.83;;;;;;;;;;5052288;28;20056;-72
2022/12/18 03:13:13;;;;;;;45.90;21.60;;;;;;;;;;5050508;28;20083;-72
2022/12/18 03:15:45;;;;;;;37.65;19.10;;;;;;;;;;5053661;28;20045;-72
2022/12/18 03:18:17;;;;;;;47.08;20.42;;;;;;;;;;5051106;28;20048;-72
2022/12/18 03:20:44;;;;;;;43.28;20.27;;;;;;;;;;5051336;28;20049;-72
2022/12/18 03:23:12;;;;;;;53.40;22.42;;;;;;;;;;5054387;28;20052;-74
2022/12/18 03:25:40;;;;;;;42.35;20.45;;;;;;;;;;5052224;28;20093;-72
2022/12/18 03:28:09;;;;;;;43.45;20.45;;;;;;;;;;5050871;28;20046;-72
2022/12/18 03:30:37;;;;;;;51.10;19.95;;;;;;;;;;5054772;28;20045;-74
2022/12/18 03:33:19;;;;;;;43.47;20.15;;;;;;;;;;5051977;28;20057;-72
2022/12/18 03:35:45;;;;;;;46.38;20.52;;;;;;;;;;5051749;28;20520;-71
2022/12/18 03:38:12;;;;;;;42.63;20.02;;;;;;;;;;5053978;28;20053;-72
2022/12/18 03:40:39;;;;;;;44.63;21.00;;;;;;;;;;5051173;28;20080;-72
2022/12/18 03:43:10;;;;;;;40.20;18.67;;;;;;;;;;5050475;28;20049;-72
2022/12/18 03:45:44;;;;;;;40.67;18.17;;;;;;;;;;5047633;28;20135;-72
2022/12/18 03:48:18;;;;;;;40.90;18.50;;;;;;;;;;5051946;28;20135;-72
2022/12/18 03:50:45;;;;;;;41.03;20.25;;;;;;;;;;5049570;28;20864;-72
2022/12/18 03:53:11;;;;;;;34.15;17.83;;;;;;;;;;5051350;28;20061;-72
2022/12/18 03:55:38;;;;;;;34.95;18.55;;;;;;;;;;5049906;28;20045;-73
2022/12/18 03:58:06;;;;;;;39.15;18.80;;;;;;;;;;5050599;28;20519;-72
2022/12/18 04:00:33;;;;;;;34.00;18.47;;;;;;;;;;5049109;28;20056;-72
2022/12/18 04:03:00;;;;;;;39.53;19.60;;;;;;;;;;5050251;28;20059;-73
2022/12/18 04:05:28;;;;;;;38.60;18.88;;;;;;;;;;5052475;28;20049;-72
2022/12/18 04:07:54;;;;;;;39.25;18.08;;;;;;;;;;5051537;28;20045;-72
2022/12/18 04:10:21;;;;;;;38.83;17.92;;;;;;;;;;5051654;28;20061;-72
2022/12/18 04:12:47;;;;;;;36.97;18.35;;;;;;;;;;5050731;28;20132;-73
2022/12/18 04:15:14;;;;;;;32.25;15.68;;;;;;;;;;5048119;28;20053;-72
2022/12/18 04:17:46;;;;;;;33.78;17.35;;;;;;;;;;5055270;28;20572;-74
2022/12/18 04:20:12;;;;;;;30.40;16.13;;;;;;;;;;5067916;28;20049;-74
2022/12/18 04:22:39;;;;;;;31.53;16.57;;;;;;;;;;5052580;28;20053;-74
2022/12/18 04:25:06;;;;;;;31.77;17.05;;;;;;;;;;5053547;28;20055;-75
2022/12/18 04:27:33;;;;;;;30.47;15.80;;;;;;;;;;5050396;28;20045;-74
2022/12/18 04:29:59;;;;;;;28.13;16.23;;;;;;;;;;5053993;28;20060;-74
2022/12/18 04:32:25;;;;;;;26.77;14.80;;;;;;;;;;5051829;28;20049;-74
2022/12/18 04:34:52;;;;;;;30.33;15.30;;;;;;;;;;5051397;28;20045;-74
2022/12/18 04:37:18;;;;;;;29.17;16.13;;;;;;;;;;5057744;28;20416;-72
2022/12/18 04:39:44;;;;;;;30.17;16.13;;;;;;;;;;5060654;28;20055;-72
2022/12/18 04:42:11;;;;;;;25.80;14.15;;;;;;;;;;5056882;28;20056;-72
2022/12/18 04:44:37;;;;;;;22.70;14.13;;;;;;;;;;5053313;28;20049;-72
2022/12/18 04:47:04;;;;;;;28.02;14.88;;;;;;;;;;5052370;28;20396;-72
2022/12/18 04:49:30;;;;;;;34.90;15.32;;;;;;;;;;5054389;28;20053;-73
2022/12/18 04:51:56;;;;;;;28.37;15.10;;;;;;;;;;5050817;28;20562;-73
2022/12/18 04:54:23;;;;;;;26.25;15.25;;;;;;;;;;5058262;28;20029;-72
2022/12/18 04:56:49;;;;;;;27.95;14.23;;;;;;;;;;5059590;28;20193;-72
2022/12/18 04:59:15;;;;;;;25.97;13.60;;;;;;;;;;5054896;28;20103;-73
2022/12/18 05:01:42;;;;;;;26.58;14.20;;;;;;;;;;5051643;28;20073;-72
2022/12/18 05:04:09;;;;;;;23.77;13.13;;;;;;;;;;5052586;28;20045;-72
2022/12/18 05:06:36;;;;;;;30.17;14.87;;;;;;;;;;5052762;28;20067;-72
2022/12/18 05:09:02;;;;;;;29.50;14.75;;;;;;;;;;5056765;28;20053;-72
2022/12/18 05:11:29;;;;;;;24.67;13.33;;;;;;;;;;5051301;28;20148;-73
2022/12/18 05:13:55;;;;;;;24.73;14.00;;;;;;;;;;5048390;28;20500;-72
2022/12/18 05:16:22;;;;;;;25.08;13.90;;;;;;;;;;5050587;28;20057;-72
2022/12/18 05:18:48;;;;;;;24.67;12.85;;;;;;;;;;5052349;28;20049;-72
2022/12/18 05:21:14;;;;;;;30.77;13.85;;;;;;;;;;5053751;28;20133;-72
2022/12/18 05:23:41;;;;;;;22.80;13.57;;;;;;;;;;5053915;28;20053;-71
2022/12/18 05:26:08;;;;;;;22.95;12.15;;;;;;;;;;5049527;28;20048;-72
2022/12/18 05:28:35;;;;;;;20.27;11.60;;;;;;;;;;5050740;28;20124;-72
2022/12/18 05:31:02;;;;;;;22.83;12.47;;;;;;;;;;5056261;28;20073;-71
2022/12/18 05:33:30;;;;;;;22.30;12.13;;;;;;;;;;5064338;28;20064;-72
2022/12/18 05:35:57;;;;;;;22.70;12.27;;;;;;;;;;5064812;28;20107;-72
2022/12/18 05:38:24;;;;;;;20.57;11.90;;;;;;;;;;5064905;28;20131;-72
2022/12/18 05:40:51;;;;;;;18.93;11.53;;;;;;;;;;5063626;28;20098;-72
2022/12/18 05:43:19;;;;;;;19.80;11.67;;;;;;;;;;5067841;28;20969;-72
2022/12/18 05:45:47;;;;;;;27.03;13.07;;;;;;;;;;5065160;28;20479;-72
2022/12/18 05:48:14;;;;;;;22.40;12.40;;;;;;;;;;5063216;28;20110;-72
2022/12/18 05:50:41;;;;;;;21.63;11.83;;;;;;;;;;5044704;28;20049;-72
2022/12/18 05:53:08;;;;;;;20.00;11.73;;;;;;;;;;5050745;28;20045;-72
2022/12/18 05:55:34;;;;;;;18.77;10.53;;;;;;;;;;5049976;28;20605;-72
2022/12/18 05:58:01;;;;;;;26.27;13.07;;;;;;;;;;5064997;28;20060;-72
2022/12/18 06:00:28;;;;;;;20.43;11.90;;;;;;;;;;5081024;28;20545;-72
2022/12/18 06:02:54;;;;;;;27.83;13.30;;;;;;;;;;5074335;28;20111;-72
2022/12/18 06:05:21;;;;;;;22.37;12.80;;;;;;;;;;5084388;28;20067;-71
2022/12/18 06:07:47;;;;;;;20.07;11.60;;;;;;;;;;5084952;28;20052;-72
2022/12/18 06:10:13;;;;;;;19.30;11.70;;;;;;;;;;5075245;28;20056;-74
2022/12/18 06:12:40;;;;;;;22.77;13.07;;;;;;;;;;5064302;28;20510;-74
2022/12/18 06:15:07;;;;;;;30.25;13.73;;;;;;;;;;5056041;28;20049;-74
2022/12/18 06:17:34;;;;;;;22.50;12.60;;;;;;;;;;5061239;28;20582;-74
2022/12/18 06:20:01;;;;;;;23.13;12.57;;;;;;;;;;5063261;28;20045;-74
2022/12/18 06:22:27;;;;;;;17.77;10.83;;;;;;;;;;5053021;28;20057;-74
2022/12/18 06:24:53;;;;;;;21.43;12.10;;;;;;;;;;5059003;28;20064;-74
2022/12/18 06:27:22;;;;;;;20.77;11.80;;;;;;;;;;5062548;28;20053;-74
2022/12/18 06:29:48;;;;;;;23.13;12.50;;;;;;;;;;5063531;28;20568;-74
2022/12/18 06:32:15;;;;;;;20.07;11.07;;;;;;;;;;5063329;28;20053;-74
2022/12/18 06:34:41;;;;;;;22.40;12.20;;;;;;;;;;5062668;28;20404;-74
2022/12/18 06:37:08;;;;;;;22.43;12.83;;;;;;;;;;5061045;28;20052;-74
2022/12/18 06:39:35;;;;;;;21.73;12.23;;;;;;;;;;5049478;28;20051;-74
2022/12/18 06:42:01;;;;;;;23.07;12.23;;;;;;;;;;5055985;28;20061;-74
2022/12/18 06:44:27;;;;;;;20.30;10.80;;;;;;;;;;5059685;28;20053;-74
2022/12/18 06:46:54;;;;;;;20.30;12.03;;;;;;;;;;5051005;28;20083;-74
2022/12/18 06:49:20;;;;;;;22.00;12.67;;;;;;;;;;5057612;28;20065;-74
2022/12/18 06:51:52;;;;;;;20.67;12.43;;;;;;;;;;5061955;28;20466;-73
2022/12/18 06:54:18;;;;;;;23.93;12.07;;;;;;;;;;5056557;28;20049;-74
2022/12/18 06:56:45;;;;;;;22.10;12.60;;;;;;;;;;5048185;28;20060;-73
2022/12/18 06:59:12;;;;;;;19.87;12.33;;;;;;;;;;5062826;28;20746;-73
2022/12/18 07:01:38;;;;;;;26.60;12.80;;;;;;;;;;5062510;28;20107;-74
2022/12/18 07:04:06;;;;;;;22.73;11.90;;;;;;;;;;5050747;28;20526;-73
2022/12/18 07:06:32;;;;;;;23.00;12.30;;;;;;;;;;5052197;28;20061;-74
2022/12/18 07:08:58;;;;;;;21.33;12.03;;;;;;;;;;5059650;28;20051;-72
2022/12/18 07:11:24;;;;;;;24.53;12.47;;;;;;;;;;5063706;28;20045;-72
2022/12/18 07:13:52;;;;;;;21.47;11.47;;;;;;;;;;5063459;28;20056;-74
2022/12/18 07:16:19;;;;;;;19.13;11.20;;;;;;;;;;5053306;28;20049;-72
2022/12/18 07:18:50;;;;;;;21.97;12.73;;;;;;;;;;5057810;28;20049;-74
2022/12/18 07:21:18;;;;;;;24.67;11.80;;;;;;;;;;5047822;28;20240;-74
2022/12/18 07:23:47;;;;;;;23.90;11.90;;;;;;;;;;5062929;28;20053;-73
2022/12/18 07:26:15;;;;;;;21.13;12.13;;;;;;;;;;5056159;28;20084;-74
2022/12/18 07:28:41;;;;;;;23.13;11.93;;;;;;;;;;5054820;28;20041;-74
2022/12/18 07:31:12;;;;;;;22.13;12.37;;;;;;;;;;5062726;28;20068;-74
2022/12/18 07:33:39;;;;;;;21.13;11.37;;;;;;;;;;5058572;28;20057;-74
2022/12/18 07:36:07;;;;;;;20.80;12.48;;;;;;;;;;5060131;28;20057;-73
2022/12/18 07:38:34;;;;;;;17.90;11.93;;;;;;;;;;5050939;28;20513;-73
2022/12/18 07:41:01;;;;;;;20.03;11.07;;;;;;;;;;5050882;28;20103;-72
2022/12/18 07:43:32;;;;;;;20.73;10.50;;;;;;;;;;5054247;28;20050;-73
2022/12/18 07:45:58;;;;;;;18.40;11.47;;;;;;;;;;5050793;28;20421;-71
2022/12/18 07:48:24;;;;;;;18.53;11.13;;;;;;;;;;5064580;28;20107;-73
2022/12/18 07:50:51;;;;;;;20.40;12.10;;;;;;;;;;5065013;28;20049;-71
2022/12/18 07:53:17;;;;;;;24.33;11.90;;;;;;;;;;5065870;28;20048;-73
2022/12/18 07:55:44;;;;;;;17.93;10.30;;;;;;;;;;5065480;28;20056;-73
2022/12/18 07:58:30;;;;;;;23.53;11.50;;;;;;;;;;5061676;28;20131;-74
2022/12/18 08:01:07;;;;;;;19.43;10.83;;;;;;;;;;5055708;28;20064;-73
2022/12/18 08:03:33;;;;;;;20.87;10.60;;;;;;;;;;5062976;28;20073;-73
2022/12/18 08:06:00;;;;;;;16.73;10.67;;;;;;;;;;5062583;28;20055;-74
2022/12/18 08:08:27;;;;;;;20.83;11.37;;;;;;;;;;5060776;28;20061;-74
2022/12/18 08:10:53;;;;;;;17.17;10.60;;;;;;;;;;5069463;28;20041;-73
2022/12/18 08:13:19;;;;;;;20.23;11.67;;;;;;;;;;5061740;28;20587;-74
2022/12/18 08:15:46;;;;;;;17.27;11.07;;;;;;;;;;5065621;28;20045;-74
2022/12/18 08:18:12;;;;;;;17.87;11.13;;;;;;;;;;5064916;28;20045;-73
2022/12/18 08:20:41;;;;;;;17.60;10.10;;;;;;;;;;5065949;28;20078;-73
2022/12/18 08:23:08;;;;;;;19.43;11.30;;;;;;;;;;5064506;28;20071;-73
2022/12/18 08:25:34;;;;;;;21.77;10.90;;;;;;;;;;5042411;28;20054;-72
2022/12/18 08:28:00;;;;;;;18.20;10.87;;;;;;;;;;5065183;28;20055;-72
2022/12/18 08:30:27;;;;;;;21.33;11.20;;;;;;;;;;5062250;28;20057;-73
2022/12/18 08:32:53;;;;;;;20.17;11.00;;;;;;;;;;5065351;28;20039;-72
2022/12/18 08:35:20;;;;;;;17.42;10.88;;;;;;;;;;5062214;28;20609;-73
2022/12/18 08:37:47;;;;;;;18.08;11.05;;;;;;;;;;5064210;28;20052;-73
2022/12/18 08:40:13;;;;;;;22.30;12.23;;;;;;;;;;5067557;28;20049;-72
2022/12/18 08:45:24;;;;;;;20.77;11.48;;;;;;;;;;5064489;28;20427;-73
2022/12/18 08:47:52;;;;;;;21.92;11.60;;;;;;;;;;5058099;28;20053;-72
2022/12/18 08:50:19;;;;;;;23.67;10.53;;;;;;;;;;5059753;28;20104;-73
2022/12/18 08:52:45;;;;;;;18.87;10.97;;;;;;;;;;5059315;28;20534;-73
2022/12/18 08:55:12;;;;;;;18.43;10.80;;;;;;;;;;5057731;28;20061;-73
2022/12/18 08:57:39;;;;;;;17.33;11.00;;;;;;;;;;5060490;28;20057;-72
2022/12/18 09:00:05;;;;;;;19.70;12.60;;;;;;;;;;5066001;28;20583;-73
2022/12/18 09:02:32;;;;;;;18.63;11.20;;;;;;;;;;5054781;28;20380;-72
2022/12/18 09:04:59;;;;;;;22.35;12.65;;;;;;;;;;5052993;28;20177;-73
2022/12/18 09:07:26;;;;;;;21.43;12.27;;;;;;;;;;5060577;28;20503;-72
2022/12/18 09:09:53;;;;;;;26.05;12.02;;;;;;;;;;5063935;28;20115;-73
2022/12/18 09:12:19;;;;;;;23.05;11.77;;;;;;;;;;5064866;28;20431;-73
2022/12/18 09:14:45;;;;;;;20.05;11.80;;;;;;;;;;5065782;28;20049;-73
2022/12/18 09:17:12;;;;;;;22.43;12.57;;;;;;;;;;5065600;28;20059;-73
2022/12/18 09:19:38;;;;;;;20.83;11.93;;;;;;;;;;5054457;28;20132;-73
2022/12/18 09:22:05;;;;;;;20.37;11.17;;;;;;;;;;5050736;28;20046;-73
2022/12/18 09:24:31;;;;;;;19.88;12.07;;;;;;;;;;5079670;28;20642;-73
2022/12/18 09:26:57;;;;;;;20.25;12.05;;;;;;;;;;5086923;28;20057;-74
2022/12/18 09:29:24;;;;;;;16.80;10.03;;;;;;;;;;5088216;28;20057;-73
2022/12/18 09:31:50;;;;;;;22.13;12.57;;;;;;;;;;5087411;28;20067;-74
2022/12/18 09:34:16;;;;;;;18.65;11.77;;;;;;;;;;5062437;28;20133;-74
2022/12/18 09:36:43;;;;;;;27.90;10.60;;;;;;;;;;5080254;28;20599;-74
2022/12/18 09:39:09;;;;;;;20.92;12.07;;;;;;;;;;5053842;28;20049;-73
2022/12/18 09:41:55;;;;;;;20.13;12.45;;;;;;;;;;5057719;28;20100;-73
2022/12/18 09:44:30;;;;;;;17.42;11.13;;;;;;;;;;5052231;28;20044;-71
2022/12/18 09:46:57;;;;;;;20.85;12.02;;;;;;;;;;5056595;28;20052;-71
2022/12/18 09:49:26;;;;;;;25.70;13.40;;;;;;;;;;5063939;28;20080;-72
2022/12/18 09:51:56;;;;;;;23.17;11.95;;;;;;;;;;5058809;28;20051;-71
2022/12/18 09:54:25;;;;;;;21.00;12.05;;;;;;;;;;5062891;28;20053;-73
2022/12/18 09:56:53;;;;;;;18.88;11.70;;;;;;;;;;5046558;28;20101;-71
2022/12/18 09:59:30;;;;;;;17.63;10.18;;;;;;;;;;5060757;28;20057;-71
2022/12/18 10:01:56;;;;;;;17.00;10.63;;;;;;;;;;5058216;28;20045;-71
2022/12/18 10:04:24;;;;;;;21.38;11.30;;;;;;;;;;5055351;28;20101;-71
2022/12/18 10:07:03;;;;;;;18.23;11.00;;;;;;;;;;5054115;28;20053;-74
2022/12/18 10:09:38;;;;;;;16.17;10.05;;;;;;;;;;5061884;28;20057;-72
2022/12/18 10:12:23;;;;;;;19.88;11.45;;;;;;;;;;5062649;28;20053;-72
2022/12/18 10:15:08;;;;;;;16.27;10.13;;;;;;;;;;5047513;28;20050;-72
2022/12/18 10:17:41;;;;;;;20.48;10.32;;;;;;;;;;5063097;28;20060;-72
2022/12/18 10:20:15;;;;;;;22.35;11.10;;;;;;;;;;5050140;28;20437;-71
2022/12/18 10:22:50;;;;;;;19.83;9.97;;;;;;;;;;5070396;28;20049;-71
2022/12/18 10:25:22;;;;;;;20.45;10.50;;;;;;;;;;5055304;28;20057;-72
2022/12/18 10:27:51;;;;;;;14.95;9.30;;;;;;;;;;5054149;28;20049;-73
2022/12/18 10:30:19;;;;;;;14.10;8.82;;;;;;;;;;5059897;28;20929;-72
2022/12/18 10:32:45;;;;;;;18.38;10.63;;;;;;;;;;5064170;28;20057;-72
2022/12/18 10:35:17;;;;;;;16.95;9.70;;;;;;;;;;5054808;28;20083;-71
2022/12/18 10:38:04;;;;;;;17.63;10.77;;;;;;;;;;5051623;28;20057;-71
2022/12/18 10:40:31;;;;;;;17.05;10.07;;;;;;;;;;5049005;28;20061;-70
2022/12/18 10:43:23;;;;;;;18.02;10.07;;;;;;;;;;5047875;28;20085;-71
2022/12/18 10:46:02;;;;;;;18.13;8.88;;;;;;;;;;5052704;28;20064;-70
2022/12/18 10:48:30;;;;;;;13.93;9.25;;;;;;;;;;5059800;28;20042;-70
2022/12/18 10:50:56;;;;;;;15.73;9.65;;;;;;;;;;5056872;28;20572;-73
2022/12/18 10:53:40;;;;;;;14.25;9.10;;;;;;;;;;5048430;28;20053;-73
2022/12/18 10:56:06;;;;;;;15.40;9.32;;;;;;;;;;5045599;28;20562;-73
2022/12/18 10:58:37;;;;;;;15.45;9.50;;;;;;;;;;5056970;28;20575;-73
2022/12/18 11:01:06;;;;;;;12.90;8.50;;;;;;;;;;5059646;28;20049;-73
2022/12/18 11:03:32;;;;;;;17.05;8.95;;;;;;;;;;5057658;28;20064;-73
2022/12/18 11:06:07;;;;;;;17.20;10.30;;;;;;;;;;5053147;28;20049;-73
2022/12/18 11:08:33;;;;;;;16.45;9.60;;;;;;;;;;5048481;28;20049;-73
2022/12/18 11:10:59;;;;;;;16.38;9.50;;;;;;;;;;5046155;28;20136;-73
2022/12/18 11:13:27;;;;;;;18.08;10.30;;;;;;;;;;5055239;28;20204;-73
2022/12/18 11:15:54;;;;;;;18.38;10.30;;;;;;;;;;5049609;28;20459;-73
2022/12/18 11:18:32;;;;;;;14.45;9.10;;;;;;;;;;5057529;28;20470;-73
2022/12/18 11:21:09;;;;;;;14.40;9.18;;;;;;;;;;5045581;28;20439;-73
2022/12/18 11:23:37;;;;;;;20.77;8.95;;;;;;;;;;5043665;28;20739;-73
2022/12/18 11:26:05;;;;;;;15.57;8.73;;;;;;;;;;5058685;28;20140;-73
2022/12/18 11:28:37;;;;;;;14.02;8.50;;;;;;;;;;5062101;28;20060;-73
2022/12/18 11:31:23;;;;;;;16.75;9.45;;;;;;;;;;5058333;28;20120;-72
2022/12/18 11:33:52;;;;;;;15.48;9.15;;;;;;;;;;5054324;28;20063;-73
2022/12/18 11:36:41;;;;;;;15.48;9.07;;;;;;;;;;5060668;28;20567;-73
2022/12/18 11:39:19;;;;;;;18.77;10.18;;;;;;;;;;5045652;28;20952;-71
2022/12/18 11:42:11;;;;;;;17.27;9.52;;;;;;;;;;5047737;28;20542;-73
2022/12/18 11:44:57;;;;;;;17.00;8.65;;;;;;;;;;5058867;28;20096;-73
2022/12/18 11:47:42;;;;;;;15.30;9.73;;;;;;;;;;5045936;28;20062;-72
2022/12/18 11:50:17;;;;;;;16.05;8.48;;;;;;;;;;5047003;28;20049;-73
2022/12/18 11:52:43;;;;;;;15.77;8.57;;;;;;;;;;5048982;28;20084;-72
2022/12/18 11:55:11;;;;;;;18.60;8.32;;;;;;;;;;5057292;28;20298;-73
2022/12/18 11:57:47;;;;;;;12.95;8.10;;;;;;;;;;5068487;28;20072;-73
2022/12/18 12:00:19;;;;;;;14.77;8.95;;;;;;;;;;5053244;28;20064;-73
2022/12/18 12:03:04;;;;;;;11.90;7.40;;;;;;;;;;5048119;28;20061;-73
2022/12/18 12:05:38;;;;;;;15.02;9.38;;;;;;;;;;5043392;28;20049;-73
2022/12/18 12:08:22;;;;;;;14.07;8.10;;;;;;;;;;5053077;28;20081;-73
2022/12/18 12:10:49;;;;;;;12.63;7.60;;;;;;;;;;5048906;28;20084;-73
2022/12/18 12:13:15;;;;;;;14.60;9.35;;;;;;;;;;5064437;28;20115;-72
2022/12/18 12:16:00;;;;;;;16.95;9.40;;;;;;;;;;5042640;28;20880;-73
2022/12/18 12:18:49;;;;;;;15.20;9.07;;;;;;;;;;5049206;28;20055;-73
2022/12/18 12:21:28;;;;;;;18.80;8.77;;;;;;;;;;5044225;28;20049;-72
2022/12/18 12:24:01;;;;;;;20.50;10.30;;;;;;;;;;5058708;28;20050;-72
2022/12/18 12:26:49;;;;;;;16.92;8.98;;;;;;;;;;5048276;28;20073;-74
2022/12/18 12:29:37;;;;;;;16.52;9.23;;;;;;;;;;5055250;28;20054;-73
2022/12/18 12:32:15;;;;;;;17.60;9.27;;;;;;;;;;5049341;28;20411;-74
2022/12/18 12:35:01;;;;;;;17.23;9.02;;;;;;;;;;5057257;28;20057;-73
2022/12/18 12:37:41;;;;;;;12.35;8.20;;;;;;;;;;5053085;28;20453;-73
2022/12/18 12:40:11;;;;;;;15.25;9.25;;;;;;;;;;5063577;28;20924;-74
2022/12/18 12:43:13;;;;;;;16.40;9.30;;;;;;;;;;5053718;28;20057;-73
2022/12/18 12:45:46;;;;;;;15.15;8.85;;;;;;;;;;5053808;28;20756;-73
2022/12/18 12:48:18;;;;;;;35.30;10.55;;;;;;;;;;5059353;28;20053;-73
2022/12/18 12:50:46;;;;;;;17.67;9.63;;;;;;;;;;5057394;28;20077;-72
2022/12/18 12:53:18;;;;;;;17.30;8.82;;;;;;;;;;5064890;28;20049;-73
2022/12/18 12:55:45;;;;;;;14.23;8.85;;;;;;;;;;5063879;28;20103;-72
2022/12/18 12:58:11;;;;;;;14.18;8.88;;;;;;;;;;5065620;28;20131;-72
2022/12/18 13:00:46;;;;;;;15.25;8.98;;;;;;;;;;5063706;28;20049;-73
2022/12/18 13:03:23;;;;;;;20.48;9.68;;;;;;;;;;5062878;28;20107;-73
2022/12/18 13:05:52;;;;;;;14.40;8.88;;;;;;;;;;5064783;28;20508;-72
2022/12/18 13:08:29;;;;;;;16.92;9.43;;;;;;;;;;5065337;28;20049;-72
2022/12/18 13:13:54;;;;;;;16.63;10.02;;;;;;;;;;5059065;28;20045;-72
2022/12/18 13:16:25;;;;;;;18.67;10.63;;;;;;;;;;5059236;28;20053;-73
2022/12/18 13:18:57;;;;;;;15.23;9.63;;;;;;;;;;5061184;28;20278;-73
2022/12/18 13:21:32;;;;;;;16.80;9.68;;;;;;;;;;5052683;28;20053;-73
2022/12/18 13:24:29;;;;;;;16.80;9.48;;;;;;;;;;5052519;28;20073;-73
2022/12/18 13:26:55;;;;;;;15.98;9.80;;;;;;;;;;5057167;28;20149;-71
2022/12/18 13:29:40;;;;;;;17.17;10.50;;;;;;;;;;5062562;28;20045;-72
2022/12/18 13:32:28;;;;;;;17.95;9.20;;;;;;;;;;5059188;28;20076;-73
2022/12/18 13:35:30;;;;;;;18.15;9.57;;;;;;;;;;5054636;28;20053;-70
2022/12/18 13:37:57;;;;;;;22.98;10.30;;;;;;;;;;5039616;28;20056;-72
2022/12/18 13:40:38;;;;;;;16.27;9.73;;;;;;;;;;5039588;28;20064;-74
2022/12/18 13:43:19;;;;;;;17.48;9.70;;;;;;;;;;5039826;28;20058;-73
2022/12/18 13:45:58;;;;;;;20.95;10.52;;;;;;;;;;5022013;28;20100;-71
2022/12/18 13:48:26;;;;;;;18.67;10.82;;;;;;;;;;5036761;28;20065;-71
2022/12/18 13:50:58;;;;;;;18.00;9.73;;;;;;;;;;5032304;28;20137;-70
2022/12/18 13:53:27;;;;;;;17.00;9.55;;;;;;;;;;5025753;28;20045;-70
2022/12/18 13:55:54;;;;;;;15.57;10.10;;;;;;;;;;5040360;28;20061;-70
2022/12/18 13:58:20;;;;;;;17.85;10.68;;;;;;;;;;5041434;28;20064;-71
2022/12/18 14:00:47;;;;;;;16.98;10.27;;;;;;;;;;5041496;28;20221;-72
2022/12/18 14:03:28;;;;;;;16.95;9.77;;;;;;;;;;5040542;28;20042;-71
2022/12/18 14:06:00;;;;;;;19.50;10.40;;;;;;;;;;5037782;28;20050;-71
2022/12/18 14:08:30;;;;;;;17.00;9.40;;;;;;;;;;5052769;28;20053;-71
2022/12/18 14:10:57;;;;;;;15.98;10.05;;;;;;;;;;5024437;28;20496;-70
2022/12/18 14:13:23;;;;;;;15.73;9.32;;;;;;;;;;5063486;28;20523;-71
2022/12/18 14:15:49;;;;;;;18.17;10.07;;;;;;;;;;5065768;28;20123;-71
2022/12/18 14:18:34;;;;;;;19.73;10.43;;;;;;;;;;5064486;28;20053;-71
2022/12/18 14:21:02;;;;;;;18.65;10.23;;;;;;;;;;5063616;28;20049;-72
2022/12/18 14:23:34;;;;;;;19.77;10.82;;;;;;;;;;5062373;28;20060;-72
2022/12/18 14:26:02;;;;;;;16.80;10.40;;;;;;;;;;5061191;28;20076;-72
2022/12/18 14:28:31;;;;;;;19.65;10.85;;;;;;;;;;5059165;28;20266;-72
2022/12/18 14:30:58;;;;;;;17.83;10.02;;;;;;;;;;5062593;28;20045;-72
2022/12/18 14:33:25;;;;;;;17.77;11.38;;;;;;;;;;5062339;28;20053;-72
2022/12/18 14:35:54;;;;;;;18.38;10.45;;;;;;;;;;5066855;28;20048;-72
2022/12/18 14:38:28;;;;;;;18.13;10.80;;;;;;;;;;5061404;28;20059;-71
2022/12/18 14:41:05;;;;;;;18.98;11.57;;;;;;;;;;5054322;28;20052;-71